Time;durP1;ratioP1;P1;durP2;ratioP2;P2;SDS_P1;SDS_P2;PMS_P1;PMS_P2;Temp;Humidity;BMP_temperature;BMP_pressure;BME280_temperature;BME280_humidity;BME280_pressure;Samples;Min_cycle;Max_cycle;Signal;HPM_P1;HPM_P2
2022/05/31 00:00:39;;;;;;;;;;;16.00;56.10;;;;;;5038315;28;20464;-74
2022/05/31 00:03:06;;;;;;;;;;;15.90;56.00;;;;;;5039177;28;19935;-74
2022/05/31 00:05:33;;;;;;;;;;;15.90;56.10;;;;;;5038867;28;20339;-73
2022/05/31 00:08:00;;;;;;;;;;;15.90;56.20;;;;;;5038653;28;19929;-74
2022/05/31 00:10:28;;;;;;;;;;;15.80;56.30;;;;;;5039361;28;20024;-73
2022/05/31 00:12:54;;;;;;;;;;;15.80;56.50;;;;;;5037748;28;19936;-75
2022/05/31 00:15:22;;;;;;;;;;;15.70;56.50;;;;;;5036765;28;19933;-74
2022/05/31 00:17:48;;;;;;;;;;;15.70;56.60;;;;;;5041239;28;19944;-74
2022/05/31 00:20:15;;;;;;;;;;;15.70;56.80;;;;;;5043483;28;19929;-76
2022/05/31 00:22:42;;;;;;;;;;;15.70;56.80;;;;;;5041086;28;19940;-76
2022/05/31 00:25:09;;;;;;;;;;;15.60;57.40;;;;;;5044170;28;19929;-73
2022/05/31 00:27:37;;;;;;;;;;;15.60;57.00;;;;;;5044971;28;19940;-73
2022/05/31 00:30:04;;;;;;;;;;;15.60;57.20;;;;;;5045779;28;19929;-73
2022/05/31 00:32:32;;;;;;;;;;;15.50;57.20;;;;;;5044422;28;19929;-73
2022/05/31 00:35:00;;;;;;;;;;;15.40;57.30;;;;;;5041988;28;19928;-73
2022/05/31 00:37:27;;;;;;;;;;;15.50;57.50;;;;;;5043004;28;19940;-74
2022/05/31 00:39:53;;;;;;;;;;;15.40;57.40;;;;;;5044272;28;19935;-73
2022/05/31 00:42:21;;;;;;;;;;;15.40;57.50;;;;;;5045052;28;20285;-72
2022/05/31 00:44:50;;;;;;;;;;;15.30;57.60;;;;;;5045280;28;19935;-73
2022/05/31 00:47:18;;;;;;;;;;;15.30;57.80;;;;;;5039809;28;19928;-77
2022/05/31 00:49:48;;;;;;;;;;;15.30;58.00;;;;;;5042340;28;19952;-72
2022/05/31 00:52:17;;;;;;;;;;;15.20;58.10;;;;;;5041648;28;19929;-77
2022/05/31 00:54:47;;;;;;;;;;;15.20;58.20;;;;;;5042652;28;20398;-76
2022/05/31 00:57:14;;;;;;;;;;;15.10;58.10;;;;;;5038371;28;19929;-75
2022/05/31 00:59:42;;;;;;;;;;;15.10;58.20;;;;;;5043425;28;20351;-74
2022/05/31 01:02:11;;;;;;;;;;;15.10;58.40;;;;;;5041688;28;19932;-73
2022/05/31 01:04:39;;;;;;;;;;;15.10;58.40;;;;;;5042418;28;19983;-75
2022/05/31 01:07:06;;;;;;;;;;;15.00;58.50;;;;;;5038951;28;20448;-73
2022/05/31 01:09:33;;;;;;;;;;;15.00;58.50;;;;;;5039662;28;19933;-75
2022/05/31 01:12:00;;;;;;;;;;;14.90;58.50;;;;;;5040961;28;19967;-75
2022/05/31 01:14:27;;;;;;;;;;;14.90;58.80;;;;;;5039164;28;19928;-76
2022/05/31 01:16:58;;;;;;;;;;;14.90;58.80;;;;;;5038598;28;19928;-74
2022/05/31 01:22:32;;;;;;;;;;;14.70;58.70;;;;;;4958024;28;20140;-73
2022/05/31 01:25:02;;;;;;;;;;;14.80;58.90;;;;;;4957054;28;19964;-73
2022/05/31 01:27:35;;;;;;;;;;;14.70;59.00;;;;;;4996402;28;19929;-74
2022/05/31 01:30:05;;;;;;;;;;;14.70;58.90;;;;;;5042183;28;19940;-74
2022/05/31 01:32:33;;;;;;;;;;;14.70;59.10;;;;;;5038941;28;20396;-75
2022/05/31 01:35:01;;;;;;;;;;;14.60;59.00;;;;;;5040340;28;19932;-74
2022/05/31 01:37:34;;;;;;;;;;;14.60;59.20;;;;;;5041664;28;19929;-71
2022/05/31 01:40:03;;;;;;;;;;;14.50;59.10;;;;;;5046269;28;19929;-68
2022/05/31 01:42:32;;;;;;;;;;;14.50;59.30;;;;;;5044408;28;19928;-65
2022/05/31 01:45:02;;;;;;;;;;;14.50;59.30;;;;;;5043634;28;19929;-67
2022/05/31 01:47:28;;;;;;;;;;;14.50;59.30;;;;;;5041688;28;20555;-67
2022/05/31 01:49:55;;;;;;;;;;;14.40;59.40;;;;;;5044675;28;19944;-68
2022/05/31 01:52:23;;;;;;;;;;;14.40;59.50;;;;;;5039434;28;19933;-67
2022/05/31 01:54:52;;;;;;;;;;;14.30;59.40;;;;;;5040890;28;19932;-67
2022/05/31 01:57:19;;;;;;;;;;;14.30;59.60;;;;;;5040361;28;19950;-67
2022/05/31 01:59:49;;;;;;;;;;;14.30;59.80;;;;;;5041911;28;19928;-67
2022/05/31 02:02:17;;;;;;;;;;;14.30;59.60;;;;;;5043599;28;19956;-67
2022/05/31 02:04:45;;;;;;;;;;;14.20;59.60;;;;;;5043090;28;19929;-68
2022/05/31 02:07:13;;;;;;;;;;;14.20;59.70;;;;;;5041452;28;19929;-66
2022/05/31 02:09:40;;;;;;;;;;;14.20;59.80;;;;;;5044466;28;20002;-70
2022/05/31 02:12:09;;;;;;;;;;;14.20;59.60;;;;;;5044404;28;19925;-68
2022/05/31 02:14:36;;;;;;;;;;;14.20;59.80;;;;;;5041431;28;19929;-66
2022/05/31 02:17:03;;;;;;;;;;;14.10;59.80;;;;;;5042275;28;20377;-69
2022/05/31 02:19:30;;;;;;;;;;;14.10;59.80;;;;;;5043133;28;19929;-70
2022/05/31 02:21:58;;;;;;;;;;;14.10;60.00;;;;;;5040942;28;20351;-68
2022/05/31 02:24:25;;;;;;;;;;;14.10;60.20;;;;;;5043700;28;19950;-66
2022/05/31 02:26:52;;;;;;;;;;;14.00;60.30;;;;;;5039391;28;19940;-68
2022/05/31 02:29:21;;;;;;;;;;;14.00;60.20;;;;;;5040105;28;19951;-70
2022/05/31 02:31:48;;;;;;;;;;;14.00;60.10;;;;;;5042912;28;20396;-72
2022/05/31 02:34:16;;;;;;;;;;;13.90;60.20;;;;;;5043114;28;19937;-69
2022/05/31 02:36:42;;;;;;;;;;;13.90;60.40;;;;;;5041752;28;19932;-69
2022/05/31 02:39:09;;;;;;;;;;;13.90;60.50;;;;;;5041311;28;19940;-70
2022/05/31 02:41:35;;;;;;;;;;;13.90;60.60;;;;;;5042822;28;19935;-69
2022/05/31 02:44:02;;;;;;;;;;;13.80;60.60;;;;;;5041863;28;20002;-65
2022/05/31 02:46:30;;;;;;;;;;;13.80;60.80;;;;;;5040534;28;20290;-65
2022/05/31 02:48:57;;;;;;;;;;;13.80;60.90;;;;;;5042381;28;19933;-65
2022/05/31 02:51:23;;;;;;;;;;;13.70;60.90;;;;;;5040718;28;19933;-65
2022/05/31 02:53:50;;;;;;;;;;;13.70;60.90;;;;;;5042039;28;19950;-68
2022/05/31 02:56:17;;;;;;;;;;;13.70;61.20;;;;;;5043412;28;20020;-70
2022/05/31 02:58:44;;;;;;;;;;;13.70;61.20;;;;;;5039882;28;19994;-67
2022/05/31 03:01:21;;;;;;;;;;;13.60;61.20;;;;;;5042770;28;19994;-68
2022/05/31 03:03:49;;;;;;;;;;;13.60;61.30;;;;;;5042726;28;19928;-70
2022/05/31 03:06:15;;;;;;;;;;;13.60;61.40;;;;;;5036390;28;19929;-68
2022/05/31 03:08:42;;;;;;;;;;;13.60;61.50;;;;;;5042264;28;19940;-70
2022/05/31 03:11:11;;;;;;;;;;;13.50;61.50;;;;;;5042495;28;19939;-67
2022/05/31 03:13:38;;;;;;;;;;;13.50;61.60;;;;;;5042474;28;20697;-68
2022/05/31 03:16:05;;;;;;;;;;;13.50;61.50;;;;;;5035695;28;19929;-69
2022/05/31 03:18:33;;;;;;;;;;;13.50;61.50;;;;;;5042189;28;19928;-68
2022/05/31 03:21:04;;;;;;;;;;;13.50;61.50;;;;;;5039785;28;19936;-67
2022/05/31 03:23:33;;;;;;;;;;;13.50;61.60;;;;;;5042419;28;19929;-69
2022/05/31 03:26:01;;;;;;;;;;;13.40;61.60;;;;;;5039779;28;19937;-65
2022/05/31 03:28:28;;;;;;;;;;;13.40;61.70;;;;;;5042216;28;20510;-69
2022/05/31 03:30:55;;;;;;;;;;;13.40;61.60;;;;;;5040483;28;20288;-67
2022/05/31 03:33:21;;;;;;;;;;;13.40;61.80;;;;;;5042118;28;19935;-65
2022/05/31 03:35:48;;;;;;;;;;;13.30;61.80;;;;;;5040316;28;19955;-68
2022/05/31 03:38:16;;;;;;;;;;;13.30;61.90;;;;;;5042169;28;20019;-66
2022/05/31 03:40:58;;;;;;;;;;;13.30;62.00;;;;;;5041469;28;19929;-67
2022/05/31 03:43:26;;;;;;;;;;;13.30;62.10;;;;;;5042270;28;19998;-73
2022/05/31 03:45:53;;;;;;;;;;;13.20;62.10;;;;;;5039648;28;19936;-71
2022/05/31 03:48:20;;;;;;;;;;;13.30;63.00;;;;;;5041733;28;19951;-68
2022/05/31 03:50:46;;;;;;;;;;;13.20;62.20;;;;;;5038046;28;19932;-67
2022/05/31 03:53:14;;;;;;;;;;;13.20;62.40;;;;;;5046235;28;19932;-65
2022/05/31 03:55:43;;;;;;;;;;;13.20;62.60;;;;;;5045070;28;19978;-65
2022/05/31 03:58:10;;;;;;;;;;;13.10;62.50;;;;;;5047474;28;19933;-66
2022/05/31 04:00:37;;;;;;;;;;;13.20;62.60;;;;;;5042385;28;19929;-67
2022/05/31 04:03:03;;;;;;;;;;;13.10;62.50;;;;;;5045420;28;19936;-67
2022/05/31 04:05:30;;;;;;;;;;;13.10;62.50;;;;;;5044407;28;19929;-70
2022/05/31 04:08:01;;;;;;;;;;;13.10;62.60;;;;;;5043773;28;19955;-72
2022/05/31 04:10:30;;;;;;;;;;;13.10;62.70;;;;;;5042684;28;19932;-66
2022/05/31 04:12:58;;;;;;;;;;;13.00;62.60;;;;;;5040308;28;19933;-72
2022/05/31 04:15:25;;;;;;;;;;;13.00;62.60;;;;;;5044260;28;19939;-67
2022/05/31 04:17:51;;;;;;;;;;;13.00;62.50;;;;;;5043130;28;19932;-67
2022/05/31 04:20:18;;;;;;;;;;;13.00;62.50;;;;;;5043067;28;19929;-66
2022/05/31 04:22:44;;;;;;;;;;;13.00;62.70;;;;;;5042661;28;19933;-69
2022/05/31 04:25:11;;;;;;;;;;;13.00;62.70;;;;;;5046127;28;19948;-68
2022/05/31 04:27:38;;;;;;;;;;;13.00;62.80;;;;;;5043156;28;19929;-71
2022/05/31 04:30:07;;;;;;;;;;;13.00;62.90;;;;;;5044168;28;19932;-67
2022/05/31 04:32:33;;;;;;;;;;;12.90;62.70;;;;;;5043584;28;19940;-69
2022/05/31 04:35:01;;;;;;;;;;;12.90;63.00;;;;;;5040941;28;19932;-68
2022/05/31 04:37:28;;;;;;;;;;;12.90;63.30;;;;;;5045462;28;19935;-65
2022/05/31 04:39:55;;;;;;;;;;;12.90;63.00;;;;;;5048867;28;19933;-68
2022/05/31 04:42:21;;;;;;;;;;;12.90;63.30;;;;;;5046366;28;19936;-66
2022/05/31 04:44:48;;;;;;;;;;;12.90;63.90;;;;;;5039684;28;19936;-66
2022/05/31 04:47:16;;;;;;;;;;;12.90;63.30;;;;;;5044024;28;20384;-70
2022/05/31 04:49:42;;;;;;;;;;;12.90;63.30;;;;;;5045379;28;19936;-66
2022/05/31 04:52:09;;;;;;;;;;;12.90;63.40;;;;;;5040336;28;19936;-68
2022/05/31 04:54:36;;;;;;;;;;;12.80;63.40;;;;;;5044912;28;20003;-68
2022/05/31 04:57:04;;;;;;;;;;;12.70;63.30;;;;;;5044131;28;20444;-67
2022/05/31 04:59:31;;;;;;;;;;;12.80;63.30;;;;;;5044059;28;19929;-66
2022/05/31 05:01:57;;;;;;;;;;;12.80;63.40;;;;;;5040020;28;19925;-66
2022/05/31 05:04:25;;;;;;;;;;;12.80;63.40;;;;;;5047102;28;19935;-67
2022/05/31 05:06:52;;;;;;;;;;;12.80;63.40;;;;;;5040846;28;19925;-70
2022/05/31 05:09:18;;;;;;;;;;;12.80;63.50;;;;;;5040241;28;19928;-70
2022/05/31 05:11:46;;;;;;;;;;;12.80;63.60;;;;;;5046367;28;20027;-67
2022/05/31 05:14:12;;;;;;;;;;;12.70;63.60;;;;;;5035287;28;20396;-69
2022/05/31 05:16:39;;;;;;;;;;;12.70;63.60;;;;;;5044959;28;19928;-68
2022/05/31 05:19:06;;;;;;;;;;;12.70;63.70;;;;;;5045709;28;19936;-65
2022/05/31 05:21:34;;;;;;;;;;;12.70;63.60;;;;;;5042888;28;19929;-69
2022/05/31 05:24:00;;;;;;;;;;;12.70;63.80;;;;;;5044927;28;19929;-67
2022/05/31 05:26:27;;;;;;;;;;;12.70;63.70;;;;;;5045299;28;19935;-67
2022/05/31 05:31:40;;;;;;;;;;;12.70;63.80;;;;;;5045021;28;19932;-68
2022/05/31 05:34:07;;;;;;;;;;;12.70;63.80;;;;;;5044970;28;19982;-65
2022/05/31 05:36:35;;;;;;;;;;;12.70;63.80;;;;;;5041913;28;19928;-68
2022/05/31 05:39:02;;;;;;;;;;;12.70;63.60;;;;;;5049354;28;19939;-68
2022/05/31 05:41:30;;;;;;;;;;;12.70;63.50;;;;;;5045604;28;19924;-67
2022/05/31 05:43:57;;;;;;;;;;;12.80;63.60;;;;;;5045881;28;19929;-67
2022/05/31 05:46:24;;;;;;;;;;;12.80;63.60;;;;;;5042842;28;19933;-69
2022/05/31 05:48:51;;;;;;;;;;;12.80;63.60;;;;;;5044808;28;19929;-68
2022/05/31 05:51:18;;;;;;;;;;;12.80;63.40;;;;;;5042034;28;19939;-70
2022/05/31 05:53:46;;;;;;;;;;;12.80;63.40;;;;;;5043651;28;20709;-68
2022/05/31 05:56:14;;;;;;;;;;;12.80;64.00;;;;;;5037243;28;19928;-69
2022/05/31 05:58:41;;;;;;;;;;;12.80;63.40;;;;;;5044985;28;19936;-70
2022/05/31 06:01:10;;;;;;;;;;;12.90;63.50;;;;;;5036360;28;19940;-69
2022/05/31 06:03:39;;;;;;;;;;;12.90;63.50;;;;;;5038450;28;19929;-68
2022/05/31 06:06:05;;;;;;;;;;;12.90;63.50;;;;;;5039642;28;19936;-65
2022/05/31 06:08:34;;;;;;;;;;;12.90;64.10;;;;;;5045561;28;19936;-68
2022/05/31 06:11:06;;;;;;;;;;;13.00;63.60;;;;;;5040352;28;19929;-68
2022/05/31 06:13:35;;;;;;;;;;;13.00;63.70;;;;;;5044850;28;19936;-68
2022/05/31 06:16:04;;;;;;;;;;;13.00;63.60;;;;;;5041325;28;19932;-68
2022/05/31 06:18:32;;;;;;;;;;;13.00;63.60;;;;;;5045846;28;19940;-68
2022/05/31 06:21:00;;;;;;;;;;;13.00;63.80;;;;;;5040713;28;19925;-67
2022/05/31 06:23:27;;;;;;;;;;;13.00;63.70;;;;;;5045154;28;19932;-71
2022/05/31 06:25:54;;;;;;;;;;;13.10;63.80;;;;;;5043522;28;19929;-68
2022/05/31 06:28:22;;;;;;;;;;;13.10;63.70;;;;;;5044449;28;19932;-67
2022/05/31 06:30:48;;;;;;;;;;;13.10;63.70;;;;;;5045172;28;19957;-68
2022/05/31 06:33:15;;;;;;;;;;;13.10;63.60;;;;;;5045171;28;20146;-70
2022/05/31 06:35:42;;;;;;;;;;;13.10;63.60;;;;;;5040791;28;19928;-69
2022/05/31 06:38:08;;;;;;;;;;;13.10;63.70;;;;;;5044823;28;19932;-68
2022/05/31 06:40:35;;;;;;;;;;;13.20;63.70;;;;;;5045900;28;19925;-67
2022/05/31 06:43:01;;;;;;;;;;;13.20;63.60;;;;;;5046589;28;19925;-67
2022/05/31 06:45:29;;;;;;;;;;;13.20;63.50;;;;;;5043397;28;20400;-70
2022/05/31 06:47:56;;;;;;;;;;;13.30;63.40;;;;;;5046649;28;19929;-66
2022/05/31 06:50:22;;;;;;;;;;;13.20;63.30;;;;;;5047118;28;19932;-70
2022/05/31 06:58:17;;;;;;;;;;;13.30;63.10;;;;;;5045994;28;19936;-72
2022/05/31 07:00:45;;;;;;;;;;;13.30;63.00;;;;;;5040182;28;19933;-69
2022/05/31 07:03:12;;;;;;;;;;;13.40;63.10;;;;;;5049648;28;19928;-70
2022/05/31 07:05:39;;;;;;;;;;;13.40;63.10;;;;;;5043783;28;20289;-67
2022/05/31 07:08:06;;;;;;;;;;;13.40;63.10;;;;;;5043090;28;19932;-70
2022/05/31 07:10:33;;;;;;;;;;;13.40;63.10;;;;;;5045181;28;19928;-66
2022/05/31 07:12:59;;;;;;;;;;;13.50;63.20;;;;;;5044212;28;19932;-65
2022/05/31 07:15:26;;;;;;;;;;;13.50;63.30;;;;;;5039018;28;19929;-68
2022/05/31 07:17:54;;;;;;;;;;;13.50;63.20;;;;;;5044332;28;20304;-71
2022/05/31 07:20:21;;;;;;;;;;;13.50;63.40;;;;;;5041188;28;19932;-66
2022/05/31 07:22:48;;;;;;;;;;;13.60;63.70;;;;;;5042996;28;20602;-69
2022/05/31 07:25:14;;;;;;;;;;;13.60;63.40;;;;;;5043713;28;20392;-67
2022/05/31 07:27:42;;;;;;;;;;;13.60;63.20;;;;;;5042220;28;20607;-68
2022/05/31 07:30:09;;;;;;;;;;;13.70;63.40;;;;;;5044312;28;20018;-67
2022/05/31 07:32:35;;;;;;;;;;;13.70;63.30;;;;;;5043331;28;19928;-66
2022/05/31 07:35:03;;;;;;;;;;;13.70;63.20;;;;;;5039997;28;19929;-68
2022/05/31 07:37:30;;;;;;;;;;;13.80;63.30;;;;;;5042565;28;19929;-70
2022/05/31 07:39:56;;;;;;;;;;;13.80;63.30;;;;;;5043731;28;19936;-68
2022/05/31 07:42:23;;;;;;;;;;;13.80;63.20;;;;;;5046041;28;20463;-65
2022/05/31 07:44:53;;;;;;;;;;;13.80;63.00;;;;;;5045212;28;20503;-67
2022/05/31 07:47:19;;;;;;;;;;;13.90;63.00;;;;;;5043612;28;19921;-69
2022/05/31 07:49:46;;;;;;;;;;;13.90;63.00;;;;;;5045160;28;19932;-70
2022/05/31 07:52:14;;;;;;;;;;;13.90;63.10;;;;;;5037859;28;19928;-64
2022/05/31 07:54:40;;;;;;;;;;;14.00;63.20;;;;;;5043141;28;19929;-71
2022/05/31 07:58:30;;;;;;;;;;;14.00;63.20;;;;;;5043224;28;20159;-69
2022/05/31 07:59:55;;;;;;;;;;;14.10;63.30;;;;;;5042700;28;19936;-65
2022/05/31 08:02:22;;;;;;;;;;;14.10;63.10;;;;;;5036061;28;19925;-70
2022/05/31 08:04:48;;;;;;;;;;;14.20;63.10;;;;;;5040905;28;19929;-68
2022/05/31 08:07:17;;;;;;;;;;;14.20;63.10;;;;;;5040293;28;20427;-68
2022/05/31 08:09:44;;;;;;;;;;;14.20;62.90;;;;;;5044082;28;19933;-69
2022/05/31 08:12:11;;;;;;;;;;;14.20;62.80;;;;;;5044381;28;20454;-64
2022/05/31 08:14:37;;;;;;;;;;;14.30;62.70;;;;;;5045977;28;19936;-70
2022/05/31 08:17:04;;;;;;;;;;;14.30;62.60;;;;;;5040561;28;19933;-67
2022/05/31 08:19:31;;;;;;;;;;;14.30;62.40;;;;;;5044840;28;19925;-68
2022/05/31 08:21:57;;;;;;;;;;;14.40;62.40;;;;;;5042611;28;19935;-68
2022/05/31 08:24:25;;;;;;;;;;;14.40;62.30;;;;;;5044091;28;19928;-64
2022/05/31 08:26:52;;;;;;;;;;;14.50;62.30;;;;;;5044744;28;19936;-70
2022/05/31 08:29:19;;;;;;;;;;;14.50;62.10;;;;;;5043070;28;19933;-68
2022/05/31 08:31:46;;;;;;;;;;;14.50;62.10;;;;;;5043723;28;19933;-71
2022/05/31 08:34:13;;;;;;;;;;;14.60;62.10;;;;;;5045421;28;19929;-63
2022/05/31 08:36:40;;;;;;;;;;;14.60;61.90;;;;;;5041604;28;19932;-69
2022/05/31 08:39:06;;;;;;;;;;;14.60;61.90;;;;;;5046438;28;19947;-66
2022/05/31 08:41:36;;;;;;;;;;;14.70;61.90;;;;;;5046759;28;19929;-70
2022/05/31 08:44:07;;;;;;;;;;;14.80;61.90;;;;;;5046265;28;19928;-69
2022/05/31 08:46:51;;;;;;;;;;;14.80;61.70;;;;;;5044157;28;19955;-67
2022/05/31 08:49:19;;;;;;;;;;;14.80;61.90;;;;;;5046768;28;19935;-72
2022/05/31 08:51:55;;;;;;;;;;;14.90;62.00;;;;;;5041220;28;19933;-67
2022/05/31 08:57:29;;;;;;;;;;;15.00;61.70;;;;;;5046452;28;19963;-68
2022/05/31 08:59:59;;;;;;;;;;;15.00;61.60;;;;;;5046364;28;19940;-66
2022/05/31 09:02:30;;;;;;;;;;;15.10;61.50;;;;;;5044519;28;20311;-66
2022/05/31 09:05:03;;;;;;;;;;;15.10;61.30;;;;;;5044211;28;20447;-64
2022/05/31 09:07:32;;;;;;;;;;;15.10;61.30;;;;;;5043642;28;19928;-69
2022/05/31 09:10:04;;;;;;;;;;;15.20;61.10;;;;;;5046492;28;19952;-65
2022/05/31 09:12:36;;;;;;;;;;;15.30;61.00;;;;;;5048026;28;19925;-67
2022/05/31 09:15:05;;;;;;;;;;;15.30;60.90;;;;;;5045500;28;19924;-69
2022/05/31 09:17:36;;;;;;;;;;;15.40;60.90;;;;;;5043050;28;19936;-66
2022/05/31 09:20:04;;;;;;;;;;;15.40;60.90;;;;;;5046177;28;20036;-69
2022/05/31 09:22:31;;;;;;;;;;;15.40;60.70;;;;;;5043972;28;19928;-68
2022/05/31 09:24:57;;;;;;;;;;;15.50;60.60;;;;;;5046179;28;19933;-66
2022/05/31 09:27:25;;;;;;;;;;;15.50;60.20;;;;;;5044543;28;20023;-65
2022/05/31 09:30:01;;;;;;;;;;;15.60;60.30;;;;;;5046406;28;19936;-71
2022/05/31 09:32:36;;;;;;;;;;;15.60;60.10;;;;;;5045781;28;20051;-68
2022/05/31 09:35:20;;;;;;;;;;;15.70;60.00;;;;;;5042655;28;19983;-67
2022/05/31 09:38:08;;;;;;;;;;;15.80;60.00;;;;;;5044716;28;19937;-68
2022/05/31 09:40:39;;;;;;;;;;;15.80;59.90;;;;;;5039802;28;20017;-67
2022/05/31 09:43:09;;;;;;;;;;;15.90;59.80;;;;;;5045861;28;19963;-69
2022/05/31 09:45:39;;;;;;;;;;;15.90;59.70;;;;;;5042029;28;19943;-69
2022/05/31 09:48:06;;;;;;;;;;;16.00;59.50;;;;;;5045345;28;19971;-69
2022/05/31 09:50:32;;;;;;;;;;;16.00;59.30;;;;;;5043687;28;20416;-66
2022/05/31 09:52:59;;;;;;;;;;;16.10;59.00;;;;;;5043223;28;19929;-68
2022/05/31 09:58:20;;;;;;;;;;;16.30;59.20;;;;;;5044940;28;19931;-70
2022/05/31 10:01:01;;;;;;;;;;;16.30;59.00;;;;;;5044656;28;20523;-70
2022/05/31 10:03:37;;;;;;;;;;;16.40;58.90;;;;;;5041742;28;20403;-70
2022/05/31 10:06:12;;;;;;;;;;;16.40;58.70;;;;;;5040132;28;19929;-67
2022/05/31 10:08:38;;;;;;;;;;;16.50;58.60;;;;;;5044112;28;19929;-68
2022/05/31 10:11:06;;;;;;;;;;;16.60;58.60;;;;;;5046279;28;19936;-65
2022/05/31 10:13:34;;;;;;;;;;;16.70;58.30;;;;;;5046388;28;19959;-67
2022/05/31 10:16:08;;;;;;;;;;;16.80;58.10;;;;;;5043688;28;20363;-67
2022/05/31 10:18:46;;;;;;;;;;;16.80;58.00;;;;;;5042188;28;19932;-67
2022/05/31 10:21:12;;;;;;;;;;;16.90;57.70;;;;;;5041361;28;19929;-66
2022/05/31 10:23:41;;;;;;;;;;;17.00;57.80;;;;;;5044876;28;19932;-64
2022/05/31 10:26:08;;;;;;;;;;;17.00;57.70;;;;;;5043711;28;20405;-67
2022/05/31 10:28:37;;;;;;;;;;;17.10;57.70;;;;;;5044314;28;20347;-69
2022/05/31 10:31:05;;;;;;;;;;;17.20;57.60;;;;;;5043089;28;20423;-66
2022/05/31 10:33:32;;;;;;;;;;;17.30;57.50;;;;;;5045462;28;19932;-68
2022/05/31 10:36:07;;;;;;;;;;;17.30;57.30;;;;;;5042972;28;19991;-69
2022/05/31 10:38:35;;;;;;;;;;;17.40;57.70;;;;;;5044532;28;21223;-65
2022/05/31 10:41:03;;;;;;;;;;;17.40;57.10;;;;;;5044913;28;20015;-67
2022/05/31 10:43:33;;;;;;;;;;;17.60;56.70;;;;;;5044283;28;19940;-71
2022/05/31 10:46:07;;;;;;;;;;;17.60;56.50;;;;;;5037278;28;21439;-68
2022/05/31 10:48:35;;;;;;;;;;;17.70;56.40;;;;;;5045064;28;19932;-73
2022/05/31 10:51:06;;;;;;;;;;;17.80;55.60;;;;;;5040532;28;19925;-66
2022/05/31 10:53:40;;;;;;;;;;;17.90;55.60;;;;;;5044960;28;19929;-69
2022/05/31 10:56:11;;;;;;;;;;;18.00;55.70;;;;;;5043805;28;19983;-68
2022/05/31 10:58:42;;;;;;;;;;;18.00;55.70;;;;;;5044216;28;19929;-68
2022/05/31 11:01:14;;;;;;;;;;;18.10;55.40;;;;;;5039046;28;20143;-69
2022/05/31 11:03:45;;;;;;;;;;;18.20;55.20;;;;;;5043154;28;20550;-68
2022/05/31 11:06:20;;;;;;;;;;;18.30;54.80;;;;;;5036968;28;19952;-68
2022/05/31 11:11:51;;;;;;;;;;;18.40;54.20;;;;;;5040736;28;19936;-68
2022/05/31 11:14:36;;;;;;;;;;;18.50;53.40;;;;;;5043879;28;19940;-73
2022/05/31 11:17:10;;;;;;;;;;;18.60;53.70;;;;;;5024683;28;19930;-71
2022/05/31 11:19:41;;;;;;;;;;;18.70;53.00;;;;;;5042981;28;19928;-67
2022/05/31 11:22:22;;;;;;;;;;;18.70;52.80;;;;;;5042305;28;19936;-70
2022/05/31 11:24:57;;;;;;;;;;;18.80;52.50;;;;;;5042792;28;19933;-67
2022/05/31 11:27:31;;;;;;;;;;;18.80;52.60;;;;;;5041883;28;19932;-68
2022/05/31 11:30:08;;;;;;;;;;;18.90;52.30;;;;;;5043453;28;20472;-71
2022/05/31 11:32:40;;;;;;;;;;;19.00;52.10;;;;;;5042631;28;19937;-67
2022/05/31 11:35:13;;;;;;;;;;;19.00;52.50;;;;;;5039917;28;19932;-67
2022/05/31 11:37:47;;;;;;;;;;;19.10;51.80;;;;;;5040064;28;20015;-70
2022/05/31 11:40:26;;;;;;;;;;;19.20;52.20;;;;;;5042994;28;19940;-70
2022/05/31 11:43:02;;;;;;;;;;;19.30;52.20;;;;;;5042569;28;19928;-70
2022/05/31 11:45:33;;;;;;;;;;;19.30;51.20;;;;;;5039802;28;19939;-67
2022/05/31 11:48:11;;;;;;;;;;;19.40;51.50;;;;;;5042989;28;19936;-69
2022/05/31 11:50:44;;;;;;;;;;;19.50;51.90;;;;;;5041159;28;19929;-72
2022/05/31 11:53:18;;;;;;;;;;;19.50;51.70;;;;;;5042118;28;19932;-65
2022/05/31 11:55:49;;;;;;;;;;;19.70;51.40;;;;;;5038595;28;19935;-68
2022/05/31 11:58:20;;;;;;;;;;;19.70;50.10;;;;;;5039415;28;19941;-68
2022/05/31 12:00:50;;;;;;;;;;;19.80;49.70;;;;;;5039392;28;20193;-69
2022/05/31 12:03:21;;;;;;;;;;;19.90;49.90;;;;;;5041805;28;19929;-68
2022/05/31 12:05:50;;;;;;;;;;;20.00;49.80;;;;;;5037640;28;19929;-74
2022/05/31 12:08:18;;;;;;;;;;;20.00;49.60;;;;;;5043217;28;19951;-70
2022/05/31 12:10:45;;;;;;;;;;;20.10;49.50;;;;;;5043117;28;19932;-71
2022/05/31 12:13:15;;;;;;;;;;;20.20;49.30;;;;;;5044909;28;19936;-69
2022/05/31 12:15:43;;;;;;;;;;;20.20;49.00;;;;;;5043469;28;19929;-67
2022/05/31 12:18:13;;;;;;;;;;;20.30;49.00;;;;;;5042440;28;20011;-68
2022/05/31 12:20:41;;;;;;;;;;;20.30;48.60;;;;;;5041987;28;19929;-66
2022/05/31 12:23:10;;;;;;;;;;;20.40;48.00;;;;;;5046109;28;20456;-69
2022/05/31 12:25:40;;;;;;;;;;;20.40;47.90;;;;;;5046219;28;19928;-69
2022/05/31 12:28:08;;;;;;;;;;;20.50;47.50;;;;;;5044327;28;20016;-70
2022/05/31 12:30:38;;;;;;;;;;;20.60;47.70;;;;;;5046682;28;19968;-70
2022/05/31 12:33:20;;;;;;;;;;;20.60;47.60;;;;;;5046275;28;19929;-69
2022/05/31 12:35:53;;;;;;;;;;;20.70;47.80;;;;;;5041976;28;20751;-73
2022/05/31 12:38:21;;;;;;;;;;;20.80;47.50;;;;;;5041506;28;20860;-71
2022/05/31 12:40:49;;;;;;;;;;;20.80;47.40;;;;;;5044940;28;20626;-71
2022/05/31 12:43:17;;;;;;;;;;;20.90;46.90;;;;;;5046357;28;19936;-66
2022/05/31 12:45:47;;;;;;;;;;;21.00;46.00;;;;;;5036746;28;20304;-67
2022/05/31 12:48:16;;;;;;;;;;;21.00;45.90;;;;;;5045973;28;20022;-67
2022/05/31 12:51:00;;;;;;;;;;;21.10;46.00;;;;;;5043907;28;20012;-74
2022/05/31 12:53:42;;;;;;;;;;;21.10;45.80;;;;;;5043199;28;19937;-70
2022/05/31 12:56:10;;;;;;;;;;;21.20;45.60;;;;;;5044575;28;20676;-69
2022/05/31 12:58:39;;;;;;;;;;;21.20;45.40;;;;;;5046588;28;20004;-67
2022/05/31 13:01:28;;;;;;;;;;;21.20;45.30;;;;;;5040525;28;19929;-71
2022/05/31 13:03:57;;;;;;;;;;;21.30;45.20;;;;;;5043180;28;20435;-66
2022/05/31 13:06:24;;;;;;;;;;;21.40;44.80;;;;;;5041933;28;20047;-67
2022/05/31 13:08:55;;;;;;;;;;;21.40;45.00;;;;;;5045761;28;19925;-69
2022/05/31 13:19:59;;;;;;;;;;;21.60;44.20;;;;;;5040981;28;19932;-74
2022/05/31 13:22:26;;;;;;;;;;;21.70;44.60;;;;;;5043224;28;19929;-67
2022/05/31 13:25:02;;;;;;;;;;;21.80;44.60;;;;;;5043398;28;19928;-70
2022/05/31 13:27:29;;;;;;;;;;;21.80;44.30;;;;;;5044294;28;19931;-71
2022/05/31 13:30:01;;;;;;;;;;;21.90;44.00;;;;;;5046215;28;19928;-69
2022/05/31 13:32:32;;;;;;;;;;;22.00;44.10;;;;;;5044408;28;19929;-71
2022/05/31 13:34:59;;;;;;;;;;;22.00;44.00;;;;;;5043661;28;19933;-69
2022/05/31 13:37:25;;;;;;;;;;;22.10;43.90;;;;;;5043276;28;19963;-67
2022/05/31 13:39:52;;;;;;;;;;;22.20;43.30;;;;;;5045867;28;19928;-71
2022/05/31 13:42:22;;;;;;;;;;;22.20;43.00;;;;;;5044744;28;20082;-66
2022/05/31 13:44:48;;;;;;;;;;;22.30;42.60;;;;;;5041929;28;19936;-68
2022/05/31 13:47:18;;;;;;;;;;;22.40;43.30;;;;;;5043970;28;19936;-69
2022/05/31 13:49:46;;;;;;;;;;;22.40;43.10;;;;;;5045513;28;20019;-68
2022/05/31 13:52:25;;;;;;;;;;;22.50;43.00;;;;;;5039720;28;19928;-69
2022/05/31 13:54:52;;;;;;;;;;;22.60;43.10;;;;;;5043620;28;20618;-67
2022/05/31 13:57:24;;;;;;;;;;;22.60;43.10;;;;;;5045477;28;20304;-70
2022/05/31 13:59:52;;;;;;;;;;;22.70;42.70;;;;;;5043191;28;19925;-65
2022/05/31 14:02:20;;;;;;;;;;;22.70;42.50;;;;;;5036933;28;20003;-65
2022/05/31 14:04:54;;;;;;;;;;;22.70;42.30;;;;;;5043526;28;19959;-70
2022/05/31 14:07:21;;;;;;;;;;;22.70;42.10;;;;;;5037703;28;20400;-66
2022/05/31 14:09:54;;;;;;;;;;;22.80;42.30;;;;;;5044971;28;19929;-71
2022/05/31 14:12:21;;;;;;;;;;;22.80;41.90;;;;;;5044893;28;19935;-69
2022/05/31 14:14:48;;;;;;;;;;;22.90;42.00;;;;;;5041130;28;20427;-71
2022/05/31 14:17:34;;;;;;;;;;;22.90;42.00;;;;;;5040288;28;19952;-68
2022/05/31 14:20:02;;;;;;;;;;;23.00;42.00;;;;;;5038958;28;19935;-72
2022/05/31 14:22:30;;;;;;;;;;;23.00;41.80;;;;;;5040712;28;19933;-69
2022/05/31 14:24:58;;;;;;;;;;;23.00;42.00;;;;;;5043734;28;20043;-66
2022/05/31 14:27:26;;;;;;;;;;;23.00;42.10;;;;;;5041384;28;19940;-70
2022/05/31 14:30:00;;;;;;;;;;;23.10;41.90;;;;;;5043781;28;20044;-68
2022/05/31 14:32:29;;;;;;;;;;;23.10;41.60;;;;;;5043672;28;19936;-70
2022/05/31 14:34:55;;;;;;;;;;;23.10;42.00;;;;;;5042959;28;20336;-70
2022/05/31 14:37:35;;;;;;;;;;;23.10;41.80;;;;;;5041539;28;19936;-70
2022/05/31 14:40:04;;;;;;;;;;;23.10;42.10;;;;;;5042609;28;19975;-69
2022/05/31 14:42:35;;;;;;;;;;;23.10;42.30;;;;;;5044502;28;20706;-67
2022/05/31 14:45:02;;;;;;;;;;;23.10;42.30;;;;;;5041701;28;19929;-71
2022/05/31 14:47:30;;;;;;;;;;;23.10;42.40;;;;;;5043056;28;19925;-70
2022/05/31 14:50:12;;;;;;;;;;;23.20;42.50;;;;;;5041507;28;20411;-76
2022/05/31 14:52:47;;;;;;;;;;;23.20;42.80;;;;;;5037462;28;20022;-71
2022/05/31 14:55:17;;;;;;;;;;;23.20;42.60;;;;;;5039724;28;19926;-72